Time;durP1;ratioP1;P1;durP2;ratioP2;P2;SDS_P1;SDS_P2;PMS_P1;PMS_P2;Temp;Humidity;BMP_temperature;BMP_pressure;BME280_temperature;BME280_humidity;BME280_pressure;Samples;Min_cycle;Max_cycle;Signal;HPM_P1;HPM_P2
2021/10/16 00:00:04;;;;;;;5.50;2.20;;;;;;;;;;6189565;28;20225;-56
2021/10/16 00:03:32;;;;;;;8.20;2.53;;;;;;;;;;6186142;28;20202;-56
2021/10/16 00:06:53;;;;;;;7.80;3.17;;;;;;;;;;6186553;28;20230;-54
2021/10/16 00:10:14;;;;;;;5.37;2.60;;;;;;;;;;6188092;28;20504;-57
2021/10/16 00:13:35;;;;;;;8.40;2.80;;;;;;;;;;6188805;28;20583;-54
2021/10/16 00:16:55;;;;;;;9.07;3.03;;;;;;;;;;6187094;28;20692;-56
2021/10/16 00:20:16;;;;;;;4.60;2.37;;;;;;;;;;6185247;28;20230;-54
2021/10/16 00:23:37;;;;;;;11.40;8.27;;;;;;;;;;6185623;28;20229;-54
2021/10/16 00:26:58;;;;;;;6.23;2.37;;;;;;;;;;6189802;28;20230;-56
2021/10/16 00:30:18;;;;;;;4.70;1.93;;;;;;;;;;6184221;28;20246;-55
2021/10/16 00:33:39;;;;;;;8.77;2.27;;;;;;;;;;6191136;28;20201;-57
2021/10/16 00:37:00;;;;;;;5.03;2.27;;;;;;;;;;6187772;28;20225;-53
2021/10/16 00:40:22;;;;;;;6.27;2.40;;;;;;;;;;6185392;28;20229;-56
2021/10/16 00:43:44;;;;;;;7.47;3.30;;;;;;;;;;6188286;28;20206;-55
2021/10/16 00:47:05;;;;;;;8.80;3.20;;;;;;;;;;6186794;28;20225;-54
2021/10/16 00:50:25;;;;;;;6.30;2.43;;;;;;;;;;6187923;28;20237;-57
2021/10/16 00:53:46;;;;;;;6.47;2.47;;;;;;;;;;6195448;28;20238;-56
2021/10/16 00:57:10;;;;;;;4.47;2.00;;;;;;;;;;6195061;28;20217;-50
2021/10/16 01:00:31;;;;;;;10.80;2.93;;;;;;;;;;6189576;28;20233;-57
2021/10/16 01:03:52;;;;;;;8.33;2.10;;;;;;;;;;6184723;28;20210;-56
2021/10/16 01:07:13;;;;;;;5.50;2.53;;;;;;;;;;6193908;28;20237;-53
2021/10/16 01:10:33;;;;;;;7.97;2.70;;;;;;;;;;6187155;28;20713;-56
2021/10/16 01:13:55;;;;;;;6.67;2.63;;;;;;;;;;6194515;28;20199;-57
2021/10/16 01:17:18;;;;;;;7.37;3.60;;;;;;;;;;6193992;28;20229;-56
2021/10/16 01:20:39;;;;;;;10.87;2.50;;;;;;;;;;6188129;28;20257;-54
2021/10/16 01:24:03;;;;;;;9.70;3.10;;;;;;;;;;6193452;28;20277;-56
2021/10/16 01:27:24;;;;;;;6.50;2.47;;;;;;;;;;6192901;28;20640;-57
2021/10/16 01:30:44;;;;;;;7.57;2.50;;;;;;;;;;6192798;28;20238;-57
2021/10/16 01:34:05;;;;;;;3.53;2.07;;;;;;;;;;6187256;28;20206;-51
2021/10/16 01:37:25;;;;;;;10.43;3.77;;;;;;;;;;6189444;28;20655;-55
2021/10/16 01:40:47;;;;;;;7.93;3.17;;;;;;;;;;6190470;28;20671;-54
2021/10/16 01:44:09;;;;;;;3.43;2.03;;;;;;;;;;6192011;28;20210;-56
2021/10/16 01:47:29;;;;;;;9.40;2.93;;;;;;;;;;6192285;28;20222;-57
2021/10/16 01:50:51;;;;;;;9.77;3.53;;;;;;;;;;6189137;28;20812;-56
2021/10/16 01:54:17;;;;;;;7.03;2.47;;;;;;;;;;6194316;28;20202;-56
2021/10/16 01:57:50;;;;;;;11.27;3.90;;;;;;;;;;6188635;28;20233;-54
2021/10/16 02:01:10;;;;;;;9.17;3.53;;;;;;;;;;6189961;28;20575;-55
2021/10/16 02:04:32;;;;;;;8.07;2.60;;;;;;;;;;6188657;28;20211;-57
2021/10/16 02:07:53;;;;;;;7.60;2.43;;;;;;;;;;6189516;28;20770;-53
2021/10/16 02:11:14;;;;;;;7.93;3.50;;;;;;;;;;6187315;28;20949;-56
2021/10/16 02:14:45;;;;;;;5.47;2.63;;;;;;;;;;6190651;28;20284;-57
2021/10/16 02:18:08;;;;;;;7.57;3.23;;;;;;;;;;6191081;28;20222;-57
2021/10/16 02:21:29;;;;;;;6.00;2.60;;;;;;;;;;6190840;28;20242;-52
2021/10/16 02:24:51;;;;;;;11.27;2.60;;;;;;;;;;6191315;28;20199;-57
2021/10/16 02:28:12;;;;;;;10.50;3.40;;;;;;;;;;6186309;28;20198;-54
2021/10/16 02:31:42;;;;;;;5.23;3.47;;;;;;;;;;6187643;28;20232;-52
2021/10/16 02:35:05;;;;;;;4.70;2.70;;;;;;;;;;6188123;28;20222;-55
2021/10/16 02:38:25;;;;;;;6.90;3.07;;;;;;;;;;6191015;28;20221;-57
2021/10/16 02:41:46;;;;;;;5.53;3.13;;;;;;;;;;6188808;28;20615;-56
2021/10/16 02:45:07;;;;;;;4.43;3.23;;;;;;;;;;6192009;28;20261;-56
2021/10/16 02:48:30;;;;;;;4.83;3.27;;;;;;;;;;6185142;28;20206;-54
2021/10/16 02:51:51;;;;;;;6.47;3.07;;;;;;;;;;6188896;28;20229;-54
2021/10/16 02:55:11;;;;;;;6.77;3.30;;;;;;;;;;6187674;28;20265;-54
2021/10/16 02:58:52;;;;;;;11.40;4.33;;;;;;;;;;6185082;28;20242;-56
2021/10/16 03:02:13;;;;;;;9.07;3.03;;;;;;;;;;6190966;28;20325;-55
2021/10/16 03:05:34;;;;;;;7.33;2.77;;;;;;;;;;6185251;28;20234;-57
2021/10/16 03:09:03;;;;;;;5.73;3.37;;;;;;;;;;6188970;28;20594;-54
2021/10/16 03:12:26;;;;;;;5.20;3.53;;;;;;;;;;6186887;28;20284;-57
2021/10/16 03:15:53;;;;;;;9.10;3.00;;;;;;;;;;6190155;28;20804;-55
2021/10/16 03:19:14;;;;;;;7.73;4.20;;;;;;;;;;6188237;28;20194;-55
2021/10/16 03:22:45;;;;;;;7.47;3.00;;;;;;;;;;6189523;28;20598;-54
2021/10/16 03:26:06;;;;;;;11.93;3.63;;;;;;;;;;6187883;28;20222;-54
2021/10/16 03:29:27;;;;;;;7.67;3.00;;;;;;;;;;6182272;28;20648;-53
2021/10/16 03:32:48;;;;;;;6.27;3.60;;;;;;;;;;6187321;28;20218;-56
2021/10/16 03:36:08;;;;;;;9.50;3.00;;;;;;;;;;6188212;28;20225;-52
2021/10/16 03:39:31;;;;;;;7.63;3.57;;;;;;;;;;6187334;28;20634;-56
2021/10/16 03:42:52;;;;;;;4.97;2.23;;;;;;;;;;6198293;28;20214;-55
2021/10/16 03:46:14;;;;;;;8.10;2.53;;;;;;;;;;6187409;28;20234;-57
2021/10/16 03:49:35;;;;;;;7.63;3.47;;;;;;;;;;6188769;28;20214;-55
2021/10/16 03:52:55;;;;;;;3.40;1.90;;;;;;;;;;6188898;28;20230;-55
2021/10/16 03:56:18;;;;;;;10.87;3.00;;;;;;;;;;6188774;28;20233;-56
2021/10/16 03:59:42;;;;;;;4.27;2.60;;;;;;;;;;6179696;28;20191;-56
2021/10/16 04:03:04;;;;;;;8.83;2.63;;;;;;;;;;6189852;28;20225;-55
2021/10/16 04:06:26;;;;;;;7.83;3.13;;;;;;;;;;6181429;28;20514;-56
2021/10/16 04:09:47;;;;;;;7.13;2.77;;;;;;;;;;6180468;28;20750;-55
2021/10/16 04:13:09;;;;;;;9.27;3.47;;;;;;;;;;6185400;28;20206;-56
2021/10/16 04:16:37;;;;;;;10.57;3.70;;;;;;;;;;6185159;28;20670;-56
2021/10/16 04:19:57;;;;;;;6.23;3.30;;;;;;;;;;6188276;28;20198;-54
2021/10/16 04:23:18;;;;;;;8.40;2.80;;;;;;;;;;6182586;28;20294;-54
2021/10/16 04:26:40;;;;;;;9.40;3.10;;;;;;;;;;6191747;28;20229;-56
2021/10/16 04:30:03;;;;;;;8.73;3.30;;;;;;;;;;6195216;28;20214;-53
2021/10/16 04:33:29;;;;;;;7.00;3.37;;;;;;;;;;6192389;28;20193;-54
2021/10/16 04:36:50;;;;;;;6.07;2.60;;;;;;;;;;6195928;28;20234;-57
2021/10/16 04:40:14;;;;;;;7.60;3.13;;;;;;;;;;6191786;28;20233;-53
2021/10/16 04:43:36;;;;;;;6.10;3.27;;;;;;;;;;6196090;28;20206;-54
2021/10/16 04:46:58;;;;;;;9.53;3.27;;;;;;;;;;6190191;28;20324;-53
2021/10/16 04:50:18;;;;;;;5.37;2.77;;;;;;;;;;6190529;28;20233;-57
2021/10/16 04:53:41;;;;;;;5.47;2.77;;;;;;;;;;6194170;28;20198;-57
2021/10/16 04:57:02;;;;;;;9.87;3.93;;;;;;;;;;6192874;28;20226;-56
2021/10/16 05:00:25;;;;;;;7.03;2.50;;;;;;;;;;6185410;28;20234;-57
2021/10/16 05:03:47;;;;;;;7.03;2.87;;;;;;;;;;6194051;28;20194;-55
2021/10/16 05:07:08;;;;;;;4.40;2.27;;;;;;;;;;6192593;28;20324;-56
2021/10/16 05:10:30;;;;;;;8.90;4.23;;;;;;;;;;6188191;28;20936;-56
2021/10/16 05:13:51;;;;;;;5.43;2.23;;;;;;;;;;6194574;28;20195;-53
2021/10/16 05:17:12;;;;;;;9.10;2.40;;;;;;;;;;6194057;28;20630;-54
2021/10/16 05:20:34;;;;;;;5.60;2.40;;;;;;;;;;6189111;28;20245;-52
2021/10/16 05:23:54;;;;;;;6.10;2.33;;;;;;;;;;6189975;28;20460;-57
2021/10/16 05:27:16;;;;;;;7.03;2.50;;;;;;;;;;6189070;28;20262;-54
2021/10/16 05:30:36;;;;;;;4.00;2.33;;;;;;;;;;6186308;28;20241;-55
2021/10/16 05:33:57;;;;;;;6.60;2.87;;;;;;;;;;6189754;28;20190;-56
2021/10/16 05:37:19;;;;;;;5.87;2.20;;;;;;;;;;6184164;28;20229;-56
2021/10/16 05:40:40;;;;;;;7.43;2.53;;;;;;;;;;6194015;28;20234;-57
2021/10/16 05:44:02;;;;;;;6.10;2.87;;;;;;;;;;6190051;28;20217;-55
2021/10/16 05:47:22;;;;;;;7.87;2.33;;;;;;;;;;6185066;28;20229;-57
2021/10/16 05:50:43;;;;;;;8.50;3.40;;;;;;;;;;6186871;28;20233;-56
2021/10/16 05:54:08;;;;;;;9.40;3.27;;;;;;;;;;6188058;28;20218;-55
2021/10/16 05:57:29;;;;;;;8.90;2.80;;;;;;;;;;6187525;28;20222;-55
2021/10/16 06:00:50;;;;;;;8.23;3.23;;;;;;;;;;6187881;28;20218;-55
2021/10/16 06:04:15;;;;;;;4.97;2.47;;;;;;;;;;6189375;28;20198;-56
2021/10/16 06:07:35;;;;;;;8.20;2.93;;;;;;;;;;6194594;28;20714;-55
2021/10/16 06:10:57;;;;;;;5.07;2.40;;;;;;;;;;6189364;28;20241;-54
2021/10/16 06:14:18;;;;;;;7.73;2.73;;;;;;;;;;6186877;28;20194;-55
2021/10/16 06:17:39;;;;;;;8.20;3.60;;;;;;;;;;6186257;28;20234;-56
2021/10/16 06:20:59;;;;;;;6.37;2.77;;;;;;;;;;6187090;28;20583;-56
2021/10/16 06:24:20;;;;;;;6.87;2.60;;;;;;;;;;6200151;28;20282;-56
2021/10/16 06:27:47;;;;;;;6.73;2.27;;;;;;;;;;6182817;28;20324;-56
2021/10/16 06:31:08;;;;;;;5.87;2.23;;;;;;;;;;6187686;28;20273;-53
2021/10/16 06:34:29;;;;;;;6.73;4.07;;;;;;;;;;6184816;28;20222;-57
2021/10/16 06:37:49;;;;;;;8.60;3.40;;;;;;;;;;6181206;28;20226;-54
2021/10/16 06:41:11;;;;;;;6.73;2.90;;;;;;;;;;6184870;28;20226;-56
2021/10/16 06:44:43;;;;;;;5.83;2.43;;;;;;;;;;6190277;28;20194;-55
2021/10/16 06:48:23;;;;;;;5.27;2.60;;;;;;;;;;6188596;28;20222;-57
2021/10/16 06:52:01;;;;;;;7.67;2.07;;;;;;;;;;6187093;28;20225;-55
2021/10/16 06:55:22;;;;;;;6.70;2.50;;;;;;;;;;6188763;28;20230;-56
2021/10/16 06:58:43;;;;;;;6.63;2.90;;;;;;;;;;6187858;28;20433;-56
2021/10/16 07:02:05;;;;;;;6.43;2.63;;;;;;;;;;6188169;28;20502;-55
2021/10/16 07:05:40;;;;;;;8.27;2.77;;;;;;;;;;6187109;28;20239;-55
2021/10/16 07:09:00;;;;;;;8.03;2.57;;;;;;;;;;6194046;28;20209;-56
2021/10/16 07:12:22;;;;;;;4.27;2.67;;;;;;;;;;6188093;28;20226;-57
2021/10/16 07:15:43;;;;;;;7.10;2.87;;;;;;;;;;6184955;28;20321;-57
2021/10/16 07:19:04;;;;;;;9.10;3.60;;;;;;;;;;6195816;28;20229;-57
2021/10/16 07:22:25;;;;;;;8.33;2.57;;;;;;;;;;6189924;28;20230;-56
2021/10/16 07:25:46;;;;;;;5.80;2.73;;;;;;;;;;6184623;28;20230;-58
2021/10/16 07:29:06;;;;;;;7.33;2.93;;;;;;;;;;6187447;28;20626;-56
2021/10/16 07:32:27;;;;;;;3.67;2.07;;;;;;;;;;6181839;28;20297;-56
2021/10/16 07:35:49;;;;;;;4.17;2.07;;;;;;;;;;6181377;28;20237;-53
2021/10/16 07:39:10;;;;;;;5.73;2.40;;;;;;;;;;6185080;28;20293;-57
2021/10/16 07:42:31;;;;;;;6.90;2.80;;;;;;;;;;6183009;28;20257;-55
2021/10/16 07:45:51;;;;;;;7.90;2.97;;;;;;;;;;6186212;28;20545;-57
2021/10/16 07:49:11;;;;;;;7.57;2.57;;;;;;;;;;6190450;28;20198;-52
2021/10/16 07:52:33;;;;;;;4.90;2.63;;;;;;;;;;6185964;28;20229;-54
2021/10/16 10:49:41;;;;;;;5.00;2.08;;;;;;;;;;6187100;28;20241;-57
2021/10/16 10:53:04;;;;;;;6.35;2.28;;;;;;;;;;6196555;28;20232;-57
2021/10/16 10:56:36;;;;;;;4.88;2.53;;;;;;;;;;6225908;28;20233;-55
2021/10/16 11:00:01;;;;;;;5.85;2.00;;;;;;;;;;6232948;28;20208;-55
2021/10/16 11:03:39;;;;;;;3.67;1.80;;;;;;;;;;6231057;28;20604;-55
2021/10/16 11:07:03;;;;;;;4.75;2.40;;;;;;;;;;6227815;28;20224;-55
2021/10/16 11:10:25;;;;;;;7.50;2.50;;;;;;;;;;6239010;28;20217;-57
2021/10/16 11:13:45;;;;;;;3.97;2.40;;;;;;;;;;6233246;28;20236;-54
2021/10/16 11:17:07;;;;;;;4.53;2.47;;;;;;;;;;6233970;28;20753;-53
2021/10/16 11:20:33;;;;;;;5.90;1.80;;;;;;;;;;6237144;28;20295;-56
2021/10/16 11:23:55;;;;;;;7.63;2.03;;;;;;;;;;6230711;28;20248;-53
2021/10/16 11:27:21;;;;;;;5.77;2.77;;;;;;;;;;6229444;28;20511;-55
2021/10/16 11:30:42;;;;;;;9.67;1.80;;;;;;;;;;6232807;28;20209;-53
2021/10/16 11:34:08;;;;;;;5.73;1.80;;;;;;;;;;6232336;28;20221;-56
2021/10/16 11:37:44;;;;;;;5.30;2.07;;;;;;;;;;6224198;28;20236;-54
2021/10/16 11:41:07;;;;;;;4.13;2.07;;;;;;;;;;6234939;28;20193;-56
2021/10/16 11:44:27;;;;;;;3.70;2.40;;;;;;;;;;6226938;28;20205;-56
2021/10/16 11:47:49;;;;;;;5.57;3.17;;;;;;;;;;6228628;28;20331;-54
2021/10/16 11:51:09;;;;;;;5.37;2.67;;;;;;;;;;6234832;28;20228;-54
2021/10/16 11:54:30;;;;;;;5.77;2.77;;;;;;;;;;6237181;28;20836;-53
2021/10/16 11:57:52;;;;;;;4.13;2.23;;;;;;;;;;6218193;28;20228;-56
2021/10/16 12:01:13;;;;;;;2.43;2.00;;;;;;;;;;6219315;28;20201;-56
2021/10/16 12:04:33;;;;;;;3.60;2.13;;;;;;;;;;6230358;28;20201;-57
2021/10/16 12:07:55;;;;;;;5.40;2.07;;;;;;;;;;6229892;28;20220;-56
2021/10/16 12:11:17;;;;;;;7.57;2.93;;;;;;;;;;6231527;28;20505;-51
2021/10/16 12:14:40;;;;;;;6.70;2.83;;;;;;;;;;6233761;28;20311;-65
2021/10/16 12:18:01;;;;;;;8.43;2.87;;;;;;;;;;6229309;28;20232;-59
2021/10/16 12:21:26;;;;;;;2.53;2.33;;;;;;;;;;6224848;28;20646;-57
2021/10/16 12:24:59;;;;;;;6.23;2.30;;;;;;;;;;6232598;28;20641;-59
2021/10/16 12:28:20;;;;;;;3.00;1.73;;;;;;;;;;6228426;28;20565;-57
2021/10/16 12:31:46;;;;;;;5.63;1.77;;;;;;;;;;6229222;28;20255;-57
2021/10/16 12:35:17;;;;;;;4.50;2.77;;;;;;;;;;6225244;28;20213;-58
2021/10/16 12:38:46;;;;;;;3.40;1.93;;;;;;;;;;6233693;28;20259;-58
2021/10/16 12:42:07;;;;;;;3.23;1.80;;;;;;;;;;6230548;28;20220;-56
2021/10/16 12:45:36;;;;;;;3.60;2.17;;;;;;;;;;6229082;28;20202;-52
2021/10/16 12:48:58;;;;;;;4.13;3.00;;;;;;;;;;6236355;28;20216;-50
2021/10/16 12:52:25;;;;;;;5.30;2.67;;;;;;;;;;6230255;28;20228;-53
2021/10/16 12:55:46;;;;;;;3.93;1.97;;;;;;;;;;6241448;28;20193;-54
2021/10/16 12:59:07;;;;;;;4.50;2.37;;;;;;;;;;6228942;28;21429;-52
2021/10/16 13:02:27;;;;;;;7.93;2.37;;;;;;;;;;6239172;28;20213;-50
2021/10/16 13:05:50;;;;;;;5.63;2.70;;;;;;;;;;6237307;28;20197;-55
2021/10/16 13:09:11;;;;;;;3.00;2.20;;;;;;;;;;6235400;28;21671;-54
2021/10/16 13:12:31;;;;;;;4.93;2.00;;;;;;;;;;6240312;28;20682;-54
2021/10/16 13:15:52;;;;;;;7.97;2.57;;;;;;;;;;6236109;28;20206;-54
2021/10/16 13:19:12;;;;;;;5.60;2.47;;;;;;;;;;6237560;28;20212;-53
2021/10/16 13:22:34;;;;;;;9.77;8.87;;;;;;;;;;6229649;28;20229;-53
2021/10/16 13:25:55;;;;;;;26.83;24.23;;;;;;;;;;6231390;28;20197;-51
2021/10/16 13:29:16;;;;;;;201.47;184.93;;;;;;;;;;6230170;28;20224;-54
2021/10/16 13:32:36;;;;;;;436.47;401.67;;;;;;;;;;6230871;28;20577;-50
2021/10/16 13:35:57;;;;;;;677.53;619.47;;;;;;;;;;6231397;28;20594;-53
2021/10/16 13:39:18;;;;;;;505.33;461.43;;;;;;;;;;6238241;28;20193;-53
2021/10/16 13:42:42;;;;;;;418.40;386.33;;;;;;;;;;6223884;28;20221;-52
2021/10/16 13:46:03;;;;;;;305.87;279.27;;;;;;;;;;6225807;28;20247;-54
2021/10/16 13:49:23;;;;;;;786.60;715.47;;;;;;;;;;6231456;28;20232;-52
2021/10/16 13:52:44;;;;;;;266.63;239.30;;;;;;;;;;6229209;28;20629;-49
2021/10/16 13:56:06;;;;;;;10.17;6.97;;;;;;;;;;6238084;28;20206;-52
2021/10/16 13:59:26;;;;;;;3.73;3.40;;;;;;;;;;6231275;28;20197;-53
2021/10/16 14:02:47;;;;;;;6.90;2.33;;;;;;;;;;6227410;28;20220;-50
2021/10/16 14:06:07;;;;;;;4.20;3.00;;;;;;;;;;6230327;28;20197;-52
2021/10/16 14:09:28;;;;;;;3.80;2.30;;;;;;;;;;6237782;28;20200;-51
2021/10/16 14:12:50;;;;;;;6.57;2.80;;;;;;;;;;6229728;28;20233;-50
2021/10/16 14:16:13;;;;;;;3.43;2.33;;;;;;;;;;6240786;28;20196;-54
2021/10/16 14:19:37;;;;;;;5.87;2.17;;;;;;;;;;6237345;28;20208;-55
2021/10/16 14:22:58;;;;;;;5.70;2.93;;;;;;;;;;6223788;28;20228;-53
2021/10/16 14:26:18;;;;;;;6.33;2.67;;;;;;;;;;6233690;28;20229;-52
2021/10/16 14:29:40;;;;;;;3.77;2.10;;;;;;;;;;6229204;28;20209;-50
2021/10/16 14:33:01;;;;;;;4.17;2.43;;;;;;;;;;6230325;28;20307;-51
2021/10/16 14:36:23;;;;;;;8.80;3.10;;;;;;;;;;6234142;28;20232;-55
2021/10/16 14:39:44;;;;;;;7.17;4.17;;;;;;;;;;6236494;28;20193;-49
2021/10/16 14:43:04;;;;;;;4.23;2.50;;;;;;;;;;6235661;28;20220;-52
2021/10/16 14:46:26;;;;;;;7.93;3.07;;;;;;;;;;6238478;28;20229;-52
2021/10/16 14:49:47;;;;;;;5.73;3.37;;;;;;;;;;6229760;28;20332;-55
2021/10/16 14:53:08;;;;;;;4.37;2.27;;;;;;;;;;6217136;28;20228;-49
2021/10/16 14:56:29;;;;;;;4.87;2.67;;;;;;;;;;6237139;28;20236;-49
2021/10/16 14:59:49;;;;;;;4.40;2.70;;;;;;;;;;6232907;28;20204;-53
2021/10/16 15:03:11;;;;;;;16.73;4.63;;;;;;;;;;6236652;28;20224;-48
2021/10/16 15:06:32;;;;;;;5.13;2.67;;;;;;;;;;6236553;28;20240;-51
2021/10/16 15:09:53;;;;;;;9.53;3.00;;;;;;;;;;6223134;28;20307;-46
2021/10/16 15:13:14;;;;;;;4.33;3.53;;;;;;;;;;6229888;28;20233;-52
2021/10/16 15:16:35;;;;;;;4.87;2.60;;;;;;;;;;6224472;28;20229;-51
2021/10/16 15:19:58;;;;;;;5.80;3.17;;;;;;;;;;6227607;28;20197;-55
2021/10/16 15:23:18;;;;;;;6.57;3.17;;;;;;;;;;6231683;28;21137;-52
2021/10/16 15:26:39;;;;;;;7.50;3.50;;;;;;;;;;6230914;28;20224;-50
2021/10/16 15:30:00;;;;;;;8.87;3.30;;;;;;;;;;6223752;28;20300;-50
2021/10/16 15:33:21;;;;;;;5.73;2.97;;;;;;;;;;6224429;28;20322;-53
2021/10/16 15:36:43;;;;;;;5.53;2.20;;;;;;;;;;6227025;28;20237;-53
2021/10/16 15:40:04;;;;;;;4.97;3.00;;;;;;;;;;6226577;28;20543;-50
2021/10/16 15:43:24;;;;;;;7.47;4.07;;;;;;;;;;6229425;28;20250;-52
2021/10/16 15:46:45;;;;;;;4.93;2.70;;;;;;;;;;6223199;28;20261;-50
2021/10/16 15:50:07;;;;;;;7.40;3.87;;;;;;;;;;6225877;28;20277;-54
2021/10/16 15:53:29;;;;;;;5.80;2.97;;;;;;;;;;6232863;28;20216;-54
2021/10/16 15:56:49;;;;;;;8.83;4.70;;;;;;;;;;6233683;28;20232;-53
2021/10/16 16:00:11;;;;;;;7.37;4.70;;;;;;;;;;6232362;28;20197;-49
2021/10/16 16:03:31;;;;;;;7.73;2.87;;;;;;;;;;6226574;28;20232;-55
2021/10/16 16:06:52;;;;;;;6.83;3.90;;;;;;;;;;6234056;28;20224;-51
2021/10/16 16:10:14;;;;;;;7.13;3.40;;;;;;;;;;6239053;28;20578;-55
2021/10/16 16:13:34;;;;;;;5.67;3.03;;;;;;;;;;6237025;28;20626;-53
2021/10/16 16:16:55;;;;;;;4.80;2.43;;;;;;;;;;6235407;28;20228;-56
2021/10/16 16:20:15;;;;;;;8.57;4.73;;;;;;;;;;6221749;28;20239;-52
2021/10/16 16:23:36;;;;;;;9.27;3.10;;;;;;;;;;6238623;28;20327;-52
2021/10/16 16:26:58;;;;;;;6.97;3.07;;;;;;;;;;6237472;28;20331;-54
2021/10/16 16:30:18;;;;;;;6.50;2.70;;;;;;;;;;6237869;28;20232;-53
2021/10/16 16:33:39;;;;;;;6.13;2.60;;;;;;;;;;6231000;28;20228;-55
2021/10/16 16:36:59;;;;;;;7.53;3.17;;;;;;;;;;6229708;28;20325;-52
2021/10/16 16:40:19;;;;;;;3.53;2.77;;;;;;;;;;6241156;28;20220;-53
2021/10/16 16:43:45;;;;;;;6.30;3.27;;;;;;;;;;6242129;28;20260;-52
2021/10/16 16:47:06;;;;;;;4.20;2.70;;;;;;;;;;6234231;28;20244;-54
2021/10/16 16:50:27;;;;;;;6.87;2.80;;;;;;;;;;6231023;28;20605;-54
2021/10/16 16:53:48;;;;;;;4.10;2.30;;;;;;;;;;6230776;28;20252;-50
2021/10/16 16:57:08;;;;;;;4.10;2.20;;;;;;;;;;6232938;28;20233;-52
2021/10/16 17:00:30;;;;;;;7.63;2.43;;;;;;;;;;6239231;28;20590;-51
2021/10/16 17:03:51;;;;;;;9.53;2.97;;;;;;;;;;6227987;28;20233;-52
2021/10/16 17:07:11;;;;;;;7.47;3.83;;;;;;;;;;6235487;28;20232;-52
2021/10/16 17:10:32;;;;;;;6.60;3.40;;;;;;;;;;6236189;28;20213;-51
2021/10/16 17:13:53;;;;;;;8.20;3.07;;;;;;;;;;6238542;28;20225;-54
2021/10/16 17:17:17;;;;;;;4.57;2.47;;;;;;;;;;6232597;28;20224;-55
2021/10/16 17:20:37;;;;;;;5.07;2.10;;;;;;;;;;6231987;28;20205;-54
2021/10/16 17:23:58;;;;;;;6.60;2.83;;;;;;;;;;6231242;28;20233;-55
2021/10/16 17:27:18;;;;;;;5.97;2.67;;;;;;;;;;6227881;28;20297;-51
2021/10/16 17:30:39;;;;;;;3.83;1.90;;;;;;;;;;6224848;28;20450;-53
2021/10/16 17:34:01;;;;;;;6.33;2.97;;;;;;;;;;6230272;28;20229;-51
2021/10/16 17:37:21;;;;;;;7.63;3.07;;;;;;;;;;6238462;28;20228;-54
2021/10/16 17:40:42;;;;;;;6.67;2.40;;;;;;;;;;6234993;28;20591;-52
2021/10/16 17:44:02;;;;;;;4.77;2.83;;;;;;;;;;6230122;28;20213;-53
2021/10/16 17:47:23;;;;;;;5.67;3.10;;;;;;;;;;6233413;28;20228;-55
2021/10/16 17:50:45;;;;;;;4.53;2.03;;;;;;;;;;6239649;28;20489;-54
2021/10/16 17:54:06;;;;;;;5.43;1.90;;;;;;;;;;6242769;28;20216;-54
2021/10/16 17:57:26;;;;;;;5.37;2.37;;;;;;;;;;6236567;28;20318;-53
2021/10/16 18:00:47;;;;;;;9.67;3.17;;;;;;;;;;6239420;28;20213;-51
2021/10/16 18:04:07;;;;;;;6.00;2.33;;;;;;;;;;6242285;28;20216;-53
2021/10/16 18:07:29;;;;;;;4.30;1.90;;;;;;;;;;6235652;28;20232;-53
2021/10/16 18:10:50;;;;;;;6.17;2.70;;;;;;;;;;6236088;28;20272;-55
2021/10/16 18:14:10;;;;;;;8.63;3.40;;;;;;;;;;6240345;28;20225;-52
2021/10/16 18:17:31;;;;;;;6.63;3.27;;;;;;;;;;6225272;28;20708;-54
2021/10/16 18:20:52;;;;;;;6.50;3.63;;;;;;;;;;6227993;28;20614;-57
2021/10/16 18:24:14;;;;;;;7.63;2.33;;;;;;;;;;6223509;28;20240;-53
2021/10/16 18:27:37;;;;;;;6.37;2.60;;;;;;;;;;6225183;28;20264;-55
2021/10/16 18:30:57;;;;;;;5.10;2.53;;;;;;;;;;6232371;28;20424;-51
2021/10/16 18:34:18;;;;;;;7.30;2.97;;;;;;;;;;6240964;28;20216;-54
2021/10/16 18:37:40;;;;;;;7.80;2.83;;;;;;;;;;6223855;28;20233;-53
2021/10/16 18:41:02;;;;;;;4.13;2.33;;;;;;;;;;6231193;28;20193;-53
2021/10/16 18:44:22;;;;;;;5.43;3.23;;;;;;;;;;6239202;28;20196;-54
2021/10/16 18:47:42;;;;;;;10.57;3.27;;;;;;;;;;6228122;28;20228;-54
2021/10/16 18:51:03;;;;;;;5.00;2.17;;;;;;;;;;6224813;28;20461;-54
2021/10/16 18:54:24;;;;;;;8.27;3.07;;;;;;;;;;6233290;28;20263;-54
2021/10/16 18:57:46;;;;;;;6.07;2.47;;;;;;;;;;6217787;28;20610;-56
2021/10/16 19:01:06;;;;;;;6.40;3.90;;;;;;;;;;6217833;28;20194;-53
2021/10/16 19:04:30;;;;;;;9.63;3.90;;;;;;;;;;6229982;28;20198;-51
2021/10/16 19:07:51;;;;;;;8.60;3.03;;;;;;;;;;6227132;28;20236;-55
2021/10/16 19:11:12;;;;;;;7.77;2.13;;;;;;;;;;6218653;28;20201;-49
2021/10/16 19:14:33;;;;;;;5.50;2.70;;;;;;;;;;6235754;28;20343;-51
2021/10/16 19:17:54;;;;;;;5.47;2.00;;;;;;;;;;6220021;28;20236;-52
2021/10/16 19:21:14;;;;;;;3.87;2.63;;;;;;;;;;6222311;28;20323;-51
2021/10/16 19:24:37;;;;;;;3.63;2.60;;;;;;;;;;6234956;28;20205;-48
2021/10/16 19:27:58;;;;;;;4.53;2.00;;;;;;;;;;6227524;28;20236;-54
2021/10/16 19:31:20;;;;;;;5.40;2.03;;;;;;;;;;6224122;28;20189;-50
2021/10/16 19:34:40;;;;;;;3.13;2.07;;;;;;;;;;6235413;28;20571;-52
2021/10/16 19:38:01;;;;;;;6.03;3.30;;;;;;;;;;6219775;28;20236;-51
2021/10/16 19:41:22;;;;;;;10.23;3.07;;;;;;;;;;6223549;28;20241;-54
2021/10/16 19:44:42;;;;;;;5.93;2.57;;;;;;;;;;6239331;28;20193;-52
2021/10/16 19:48:05;;;;;;;7.40;2.67;;;;;;;;;;6225479;28;20332;-55
2021/10/16 19:51:27;;;;;;;5.47;2.13;;;;;;;;;;6220345;28;20252;-49
2021/10/16 19:54:49;;;;;;;5.37;2.90;;;;;;;;;;6237698;28;20217;-53
2021/10/16 19:58:09;;;;;;;5.43;2.77;;;;;;;;;;6223608;28;20229;-54
2021/10/16 20:01:30;;;;;;;3.17;1.67;;;;;;;;;;6220070;28;20283;-54
2021/10/16 20:04:51;;;;;;;4.53;2.27;;;;;;;;;;6234341;28;20205;-51
2021/10/16 20:08:12;;;;;;;8.73;3.00;;;;;;;;;;6226083;28;20326;-57
2021/10/16 20:11:33;;;;;;;5.03;2.47;;;;;;;;;;6209966;28;20229;-53
2021/10/16 20:14:53;;;;;;;4.83;2.47;;;;;;;;;;6237465;28;20208;-54
2021/10/16 20:18:14;;;;;;;4.53;2.00;;;;;;;;;;6232512;28;20228;-55
2021/10/16 20:21:36;;;;;;;4.53;2.20;;;;;;;;;;6226525;28;20233;-54
2021/10/16 20:24:57;;;;;;;6.40;2.60;;;;;;;;;;6235801;28;21360;-51
2021/10/16 20:28:19;;;;;;;3.93;2.53;;;;;;;;;;6220573;28;20228;-49
2021/10/16 20:31:40;;;;;;;5.57;3.10;;;;;;;;;;6224759;28;20398;-51
2021/10/16 20:35:01;;;;;;;5.47;2.87;;;;;;;;;;6232020;28;20240;-54
2021/10/16 20:38:22;;;;;;;6.80;2.13;;;;;;;;;;6221579;28;20225;-51
2021/10/16 20:41:43;;;;;;;4.03;2.00;;;;;;;;;;6212401;28;20240;-55
2021/10/16 20:45:04;;;;;;;5.33;3.00;;;;;;;;;;6235940;28;20578;-53
2021/10/16 20:48:25;;;;;;;4.70;2.17;;;;;;;;;;6222406;28;20224;-51
2021/10/16 20:51:46;;;;;;;7.73;2.63;;;;;;;;;;6217083;28;20232;-53
2021/10/16 20:55:08;;;;;;;6.13;2.40;;;;;;;;;;6232149;28;20484;-54
2021/10/16 20:58:29;;;;;;;7.30;2.37;;;;;;;;;;6208701;28;20240;-54
2021/10/16 21:01:50;;;;;;;12.83;3.70;;;;;;;;;;6223199;28;20228;-52
2021/10/16 21:05:11;;;;;;;6.40;2.33;;;;;;;;;;6239289;28;20197;-53
2021/10/16 21:08:31;;;;;;;6.63;2.57;;;;;;;;;;6223004;28;20224;-54
2021/10/16 21:11:53;;;;;;;6.37;2.40;;;;;;;;;;6224998;28;20232;-52
2021/10/16 21:15:14;;;;;;;5.23;2.57;;;;;;;;;;6235079;28;20232;-54
2021/10/16 21:18:35;;;;;;;6.50;2.40;;;;;;;;;;6229042;28;20259;-52
2021/10/16 21:21:56;;;;;;;8.03;2.50;;;;;;;;;;6227463;28;20240;-50
2021/10/16 21:25:17;;;;;;;5.83;2.67;;;;;;;;;;6242566;28;20216;-52
2021/10/16 21:28:39;;;;;;;4.83;2.07;;;;;;;;;;6230037;28;20233;-53
2021/10/16 21:32:09;;;;;;;4.63;2.87;;;;;;;;;;6212039;28;20227;-52
2021/10/16 21:35:31;;;;;;;6.47;2.20;;;;;;;;;;6238356;28;20574;-50
2021/10/16 21:38:51;;;;;;;5.57;2.13;;;;;;;;;;6229110;28;20613;-55
2021/10/16 21:42:12;;;;;;;6.50;2.57;;;;;;;;;;6224604;28;20224;-53
2021/10/16 21:45:34;;;;;;;10.20;2.67;;;;;;;;;;6240176;28;20196;-53
2021/10/16 21:48:55;;;;;;;4.50;2.33;;;;;;;;;;6221621;28;20653;-52
2021/10/16 21:52:16;;;;;;;6.17;2.30;;;;;;;;;;6218229;28;20228;-53
2021/10/16 21:55:36;;;;;;;5.20;2.90;;;;;;;;;;6230538;28;20214;-53
2021/10/16 21:58:57;;;;;;;4.53;2.27;;;;;;;;;;6225024;28;20240;-55
2021/10/16 22:02:19;;;;;;;5.10;2.17;;;;;;;;;;6222397;28;20228;-54
2021/10/16 22:05:40;;;;;;;3.97;2.23;;;;;;;;;;6237360;28;20189;-54
2021/10/16 22:09:00;;;;;;;5.10;2.93;;;;;;;;;;6220092;28;20399;-54
2021/10/16 22:12:21;;;;;;;5.40;2.53;;;;;;;;;;6226746;28;20244;-54
2021/10/16 22:15:42;;;;;;;8.87;2.47;;;;;;;;;;6236687;28;20220;-53
2021/10/16 22:19:04;;;;;;;5.03;2.33;;;;;;;;;;6213006;28;20228;-51
2021/10/16 22:22:24;;;;;;;8.47;2.67;;;;;;;;;;6229653;28;20605;-54
2021/10/16 22:25:45;;;;;;;11.57;3.70;;;;;;;;;;6232705;28;20279;-51
2021/10/16 22:29:06;;;;;;;6.40;2.47;;;;;;;;;;6204059;28;20229;-55
2021/10/16 22:32:26;;;;;;;9.43;3.27;;;;;;;;;;6219750;28;20237;-50
2021/10/16 22:35:48;;;;;;;9.93;2.63;;;;;;;;;;6235507;28;20225;-52
2021/10/16 22:39:09;;;;;;;5.93;2.07;;;;;;;;;;6234553;28;20413;-50
2021/10/16 22:42:30;;;;;;;6.00;2.43;;;;;;;;;;6225128;28;20232;-54
2021/10/16 22:45:51;;;;;;;8.03;2.43;;;;;;;;;;6235591;28;20184;-51
2021/10/16 22:49:11;;;;;;;5.27;2.37;;;;;;;;;;6238010;28;20221;-50
2021/10/16 22:52:33;;;;;;;3.23;2.13;;;;;;;;;;6226428;28;20228;-51
2021/10/16 22:55:56;;;;;;;4.50;2.80;;;;;;;;;;6232953;28;20209;-53
2021/10/16 22:59:16;;;;;;;7.77;2.43;;;;;;;;;;6230525;28;20323;-49